createdAt,value
2019-04-10T00:00:51.116Z,93.43
2019-04-10T00:03:28.928Z,93.00
2019-04-10T00:05:47.991Z,92.91
2019-04-10T00:08:15.321Z,92.95
2019-04-10T00:10:43.726Z,92.94
2019-04-10T00:13:12.112Z,92.32
2019-04-10T00:15:40.307Z,91.82
2019-04-10T00:18:07.788Z,91.79
2019-04-10T00:20:35.096Z,92.09
2019-04-10T00:23:02.564Z,91.01
2019-04-10T00:25:29.849Z,91.20
2019-04-10T00:27:57.119Z,92.15
2019-04-10T00:30:25.046Z,92.88
2019-04-10T00:32:52.460Z,92.14
2019-04-10T00:35:19.760Z,90.76
2019-04-10T00:37:47.121Z,90.96
2019-04-10T00:40:15.129Z,90.29
2019-04-10T00:42:43.281Z,90.68
2019-04-10T00:45:11.265Z,89.49
2019-04-10T00:47:39.280Z,89.31
2019-04-10T00:50:06.831Z,89.10
2019-04-10T00:52:34.496Z,89.37
2019-04-10T00:55:01.917Z,89.15
2019-04-10T00:57:29.622Z,90.70
2019-04-10T00:59:57.033Z,90.22
2019-04-10T01:02:24.829Z,90.92
2019-04-10T01:04:52.985Z,90.91
2019-04-10T01:07:32.694Z,91.50
2019-04-10T01:09:50.029Z,91.17
2019-04-10T01:12:17.315Z,90.97
2019-04-10T01:14:45.563Z,91.18
2019-04-10T01:17:13.692Z,91.66
2019-04-10T01:19:41.860Z,92.25
2019-04-10T01:22:09.269Z,93.15
2019-04-10T01:24:37.558Z,92.68
2019-04-10T01:27:06.018Z,92.31
2019-04-10T01:29:33.630Z,91.11
2019-04-10T01:32:01.599Z,90.70
2019-04-10T01:34:29.551Z,91.00
2019-04-10T01:36:56.906Z,91.15
2019-04-10T01:39:28.444Z,91.35
2019-04-10T01:41:56.470Z,91.40
2019-04-10T01:44:24.724Z,92.76
2019-04-10T01:46:52.951Z,92.69
2019-04-10T01:49:20.274Z,91.61
2019-04-10T01:51:47.724Z,90.92
2019-04-10T01:54:15.212Z,90.58
2019-04-10T01:56:42.455Z,90.83
2019-04-10T01:59:09.976Z,90.30
2019-04-10T02:01:48.392Z,90.92
2019-04-10T02:04:16.339Z,90.10
2019-04-10T02:06:44.116Z,90.60
2019-04-10T02:09:11.399Z,91.71
2019-04-10T02:11:39.771Z,91.77
2019-04-10T02:14:07.816Z,91.86
2019-04-10T02:16:35.221Z,91.90
2019-04-10T02:19:02.442Z,92.03
2019-04-10T02:21:29.731Z,92.01
2019-04-10T02:23:57.000Z,91.78
2019-04-10T02:26:24.255Z,92.02
2019-04-10T02:28:51.550Z,91.93
2019-04-10T02:31:19.268Z,91.78
2019-04-10T02:33:49.539Z,91.84
2019-04-10T02:36:17.433Z,91.69
2019-04-10T02:38:59.230Z,91.44
2019-04-10T02:41:14.264Z,91.52
2019-04-10T02:43:42.947Z,92.20
2019-04-10T02:46:11.353Z,92.06
2019-04-10T02:48:39.420Z,91.32
2019-04-10T02:51:07.732Z,91.71
2019-04-10T02:53:37.283Z,92.04
2019-04-10T02:56:05.401Z,91.67
2019-04-10T02:58:34.381Z,91.82
2019-04-10T03:01:03.076Z,91.84
2019-04-10T03:03:30.891Z,91.82
2019-04-10T03:05:58.709Z,92.33
2019-04-10T03:08:43.162Z,91.57
2019-04-10T03:11:00.436Z,91.62
2019-04-10T03:13:26.929Z,91.62
2019-04-10T03:15:53.672Z,91.91
2019-04-10T03:18:21.055Z,92.02
2019-04-10T03:20:48.787Z,91.82
2019-04-10T03:23:16.182Z,91.46
2019-04-10T03:25:43.438Z,91.25
2019-04-10T03:28:11.182Z,91.27
2019-04-10T03:30:39.554Z,90.90
2019-04-10T03:33:21.926Z,90.70
2019-04-10T03:35:49.568Z,90.70
2019-04-10T03:38:18.181Z,91.34
2019-04-10T03:40:45.871Z,92.05
2019-04-10T03:43:13.959Z,91.89
2019-04-10T03:45:41.362Z,92.40
2019-04-10T03:48:08.639Z,92.56
2019-04-10T03:50:36.248Z,92.29
2019-04-10T03:53:03.680Z,92.69
2019-04-10T03:55:32.642Z,92.59
2019-04-10T03:58:00.776Z,92.54
2019-04-10T04:00:28.219Z,92.31
2019-04-10T04:02:56.009Z,91.90
2019-04-10T04:05:23.449Z,92.63
2019-04-10T04:07:50.759Z,92.80
2019-04-10T04:10:18.363Z,92.43
2019-04-10T04:12:46.696Z,91.83
2019-04-10T04:15:14.101Z,91.64
2019-04-10T04:17:41.339Z,91.75
2019-04-10T04:20:08.766Z,92.04
2019-04-10T04:22:36.991Z,91.66
2019-04-10T04:25:04.660Z,91.68
2019-04-10T04:27:31.932Z,91.38
2019-04-10T04:29:59.674Z,91.82
2019-04-10T04:32:26.990Z,91.88
2019-04-10T04:34:54.331Z,92.56
2019-04-10T04:37:21.559Z,92.40
2019-04-10T04:39:48.802Z,92.33
2019-04-10T04:42:17.029Z,92.17
2019-04-10T04:44:45.406Z,92.38
2019-04-10T04:47:13.390Z,92.03
2019-04-10T04:49:40.773Z,92.08
2019-04-10T04:52:10.397Z,91.26
2019-04-10T04:54:37.331Z,91.40
2019-04-10T04:57:04.604Z,92.15
2019-04-10T04:59:34.599Z,91.54
2019-04-10T05:02:02.145Z,92.18
2019-04-10T05:04:31.930Z,92.25
2019-04-10T05:06:58.633Z,91.89
2019-04-10T05:09:33.750Z,92.44
2019-04-10T05:11:55.160Z,92.42
2019-04-10T05:14:23.695Z,91.96
2019-04-10T05:16:52.030Z,91.98
2019-04-10T05:19:19.627Z,91.58
2019-04-10T05:21:47.678Z,91.70
2019-04-10T05:24:15.796Z,91.25
2019-04-10T05:26:43.196Z,91.65
2019-04-10T05:29:11.125Z,91.71
2019-04-10T05:31:38.821Z,91.46
2019-04-10T05:34:06.181Z,91.84
2019-04-10T05:36:33.589Z,91.39
2019-04-10T05:39:00.848Z,90.99
2019-04-10T05:41:29.170Z,91.03
2019-04-10T05:43:56.717Z,91.97
2019-04-10T05:46:24.990Z,91.63
2019-04-10T05:48:52.604Z,91.82
2019-04-10T05:51:21.193Z,91.45
2019-04-10T05:53:51.362Z,91.04
2019-04-10T05:56:19.213Z,91.61
2019-04-10T05:58:47.029Z,91.67
2019-04-10T06:01:14.414Z,91.46
2019-04-10T06:03:42.788Z,91.40
2019-04-10T06:06:10.380Z,91.16
2019-04-10T06:08:41.268Z,92.27
2019-04-10T06:11:08.788Z,91.23
2019-04-10T06:13:36.830Z,90.75
2019-04-10T06:16:05.533Z,91.02
2019-04-10T06:18:33.354Z,91.84
2019-04-10T06:21:00.913Z,92.19
2019-04-10T06:23:28.222Z,92.38
2019-04-10T06:25:56.353Z,91.86
2019-04-10T06:28:27.857Z,91.50
2019-04-10T06:30:56.827Z,91.22
2019-04-10T06:33:25.496Z,91.35
2019-04-10T06:35:53.280Z,90.87
2019-04-10T06:38:21.012Z,91.48
2019-04-10T06:40:48.521Z,91.62
2019-04-10T06:43:16.952Z,91.81
2019-04-10T06:45:44.367Z,90.54
2019-04-10T06:48:11.685Z,90.34
2019-04-10T06:50:39.257Z,90.32
2019-04-10T06:53:06.909Z,90.51
2019-04-10T06:55:34.341Z,90.85
2019-04-10T06:58:02.620Z,91.67
2019-04-10T07:00:30.688Z,90.48
2019-04-10T07:02:58.958Z,90.81
2019-04-10T07:05:37.161Z,90.61
2019-04-10T07:08:00.589Z,90.26
2019-04-10T07:10:29.844Z,90.80
2019-04-10T07:12:54.002Z,90.60
2019-04-10T07:15:23.844Z,90.87
2019-04-10T07:17:51.323Z,90.09
2019-04-10T07:20:22.436Z,88.75
2019-04-10T07:22:51.167Z,88.36
2019-04-10T07:25:19.632Z,88.37
2019-04-10T07:27:47.840Z,88.68
2019-04-10T07:30:15.440Z,88.32
2019-04-10T07:32:46.427Z,88.60
2019-04-10T07:35:15.335Z,87.90
2019-04-10T07:37:42.524Z,87.73
2019-04-10T07:40:10.038Z,87.65
2019-04-10T07:42:41.136Z,88.62
2019-04-10T07:45:07.738Z,88.33
2019-04-10T07:47:35.644Z,89.78
2019-04-10T07:50:04.847Z,88.85
2019-04-10T07:52:33.033Z,88.46
2019-04-10T07:55:01.015Z,88.77
2019-04-10T07:57:28.697Z,88.54
2019-04-10T07:59:56.791Z,88.42
2019-04-10T08:02:24.187Z,88.15
2019-04-10T08:04:51.709Z,88.51
2019-04-10T08:07:26.728Z,88.94
2019-04-10T08:09:48.219Z,89.29
2019-04-10T08:12:15.619Z,89.18
2019-04-10T08:14:42.920Z,89.13
2019-04-10T08:17:10.239Z,88.59
2019-04-10T08:19:37.501Z,88.04
2019-04-10T08:22:06.183Z,88.62
2019-04-10T08:24:34.426Z,88.44
2019-04-10T08:27:03.349Z,87.37
2019-04-10T08:29:30.716Z,86.55
2019-04-10T08:32:01.777Z,86.88
2019-04-10T08:34:29.113Z,87.46
2019-04-10T08:36:56.800Z,87.22
2019-04-10T08:39:35.259Z,88.27
2019-04-10T08:41:54.389Z,89.72
2019-04-10T08:44:24.401Z,89.92
2019-04-10T08:46:58.256Z,90.91
2019-04-10T08:49:36.841Z,91.27
2019-04-10T08:52:08.289Z,91.64
2019-04-10T08:54:36.373Z,91.76
2019-04-10T08:57:03.705Z,91.18
2019-04-10T08:59:31.940Z,90.51
2019-04-10T09:01:59.871Z,89.50
2019-04-10T09:04:28.697Z,89.82
2019-04-10T09:06:56.223Z,89.46
2019-04-10T09:09:23.691Z,89.80
2019-04-10T09:11:51.582Z,89.97
2019-04-10T09:14:19.142Z,89.53
2019-04-10T09:16:46.849Z,89.18
2019-04-10T09:19:14.490Z,90.44
2019-04-10T09:21:41.776Z,90.45
2019-04-10T09:24:10.187Z,89.79
2019-04-10T09:26:38.241Z,90.19
2019-04-10T09:29:06.747Z,89.67
2019-04-10T09:31:34.612Z,88.73
2019-04-10T09:34:01.900Z,89.06
2019-04-10T09:36:29.205Z,89.22
2019-04-10T09:38:56.619Z,89.07
2019-04-10T09:41:23.881Z,88.37
2019-04-10T09:43:51.129Z,88.43
2019-04-10T09:46:18.440Z,87.58
2019-04-10T09:48:45.700Z,86.59
2019-04-10T09:51:16.228Z,88.39
2019-04-10T09:53:43.336Z,88.01
2019-04-10T09:56:11.696Z,87.70
2019-04-10T09:58:39.183Z,87.00
2019-04-10T10:01:08.332Z,87.42
2019-04-10T10:03:36.710Z,88.31
2019-04-10T10:06:04.097Z,88.69
2019-04-10T10:08:31.699Z,88.45
2019-04-10T10:10:59.766Z,89.30
2019-04-10T10:13:27.721Z,88.98
2019-04-10T10:15:55.157Z,88.47
2019-04-10T10:18:23.428Z,87.36
2019-04-10T10:20:52.186Z,86.98
2019-04-10T10:23:20.052Z,86.35
2019-04-10T10:25:47.833Z,85.95
2019-04-10T10:28:15.324Z,85.86
2019-04-10T10:30:43.979Z,85.93
2019-04-10T10:33:11.403Z,85.12
2019-04-10T10:35:39.006Z,84.53
2019-04-10T10:38:07.603Z,83.65
2019-04-10T10:40:35.911Z,83.20
2019-04-10T10:43:04.342Z,83.64
2019-04-10T10:45:31.951Z,85.71
2019-04-10T10:47:59.261Z,85.31
2019-04-10T10:50:29.378Z,85.21
2019-04-10T10:52:57.584Z,82.86
2019-04-10T10:55:27.557Z,83.47
2019-04-10T10:57:55.438Z,83.23
2019-04-10T11:00:23.162Z,83.85
2019-04-10T11:02:50.465Z,83.72
2019-04-10T11:05:19.052Z,83.76
2019-04-10T11:07:47.117Z,83.13
2019-04-10T11:10:20.561Z,84.16
2019-04-10T11:12:44.699Z,83.26
2019-04-10T11:15:12.413Z,82.81
2019-04-10T11:17:40.422Z,82.11
2019-04-10T11:20:10.114Z,82.95
2019-04-10T11:22:37.833Z,83.01
2019-04-10T11:25:06.114Z,80.86
2019-04-10T11:27:34.333Z,81.91
2019-04-10T11:30:03.491Z,80.58
2019-04-10T11:32:31.246Z,80.50
2019-04-10T11:34:59.033Z,81.74
2019-04-10T11:37:36.642Z,79.92
2019-04-10T11:39:56.285Z,80.99
2019-04-10T11:42:24.013Z,79.70
2019-04-10T11:44:53.846Z,80.21
2019-04-10T11:47:23.593Z,80.66
2019-04-10T11:49:49.837Z,79.97
2019-04-10T11:52:19.198Z,79.93
2019-04-10T11:54:48.549Z,77.95
2019-04-10T11:57:17.684Z,77.61
2019-04-10T11:59:47.418Z,76.23
2019-04-10T12:02:16.543Z,78.37
2019-04-10T12:04:52.121Z,78.10
2019-04-10T12:07:49.207Z,77.56
2019-04-10T12:12:11.195Z,77.20
2019-04-10T12:14:39.611Z,76.80
2019-04-10T12:17:07.174Z,76.92
2019-04-10T12:19:34.457Z,77.24
2019-04-10T12:22:06.382Z,75.79
2019-04-10T12:24:35.016Z,75.91
2019-04-10T12:27:02.455Z,75.29
2019-04-10T12:29:30.862Z,75.05
2019-04-10T12:31:58.577Z,74.35
2019-04-10T12:34:26.519Z,75.20
2019-04-10T12:36:55.139Z,73.50
2019-04-10T12:39:22.786Z,74.75
2019-04-10T12:41:50.533Z,74.18
2019-04-10T12:44:17.893Z,75.57
2019-04-10T12:46:45.668Z,75.32
2019-04-10T12:49:13.153Z,75.74
2019-04-10T12:51:41.479Z,73.04
2019-04-10T12:54:09.974Z,74.04
2019-04-10T12:56:37.948Z,73.62
2019-04-10T12:59:06.928Z,75.24
2019-04-10T13:01:34.441Z,74.56
2019-04-10T13:04:01.750Z,75.36
2019-04-10T13:06:29.753Z,75.34
2019-04-10T13:09:05.729Z,75.43
2019-04-10T13:11:26.838Z,73.91
2019-04-10T13:13:54.677Z,75.01
2019-04-10T13:16:22.094Z,75.95
2019-04-10T13:18:49.427Z,75.76
2019-04-10T13:21:17.990Z,75.49
2019-04-10T13:23:46.835Z,75.10
2019-04-10T13:26:15.559Z,75.97
2019-04-10T13:28:43.488Z,76.04
2019-04-10T13:31:11.059Z,75.74
2019-04-10T13:33:38.593Z,76.05
2019-04-10T13:36:07.121Z,76.18
2019-04-10T13:38:35.804Z,75.99
2019-04-10T13:41:04.114Z,75.39
2019-04-10T13:43:31.436Z,76.54
2019-04-10T13:45:58.749Z,76.81
2019-04-10T13:48:26.240Z,76.65
2019-04-10T13:50:53.562Z,76.96
2019-04-10T13:53:21.706Z,77.06
2019-04-10T13:55:49.245Z,77.26
2019-04-10T13:58:17.267Z,77.96
2019-04-10T14:00:45.152Z,77.42
2019-04-10T14:03:12.889Z,77.03
2019-04-10T14:05:41.202Z,77.81
2019-04-10T14:08:08.908Z,79.00
2019-04-10T14:10:39.432Z,77.94
2019-04-10T14:13:05.732Z,78.78
2019-04-10T14:15:33.772Z,78.47
2019-04-10T14:18:01.970Z,78.21
2019-04-10T14:20:29.387Z,78.41
2019-04-10T14:23:02.140Z,78.30
2019-04-10T14:25:44.635Z,78.28
2019-04-10T14:28:13.043Z,79.10
2019-04-10T14:30:40.946Z,79.50
2019-04-10T14:33:08.525Z,78.85
2019-04-10T14:35:35.824Z,78.85
2019-04-10T14:38:04.468Z,79.69
2019-04-10T14:40:32.501Z,79.52
2019-04-10T14:42:59.868Z,80.38
2019-04-10T14:45:27.801Z,79.09
2019-04-10T14:47:55.927Z,79.66
2019-04-10T14:50:24.804Z,79.73
2019-04-10T14:52:53.716Z,79.43
2019-04-10T14:55:22.092Z,79.34
2019-04-10T14:57:50.839Z,79.27
2019-04-10T15:00:46.743Z,79.64
2019-04-10T15:03:14.560Z,80.51
2019-04-10T15:05:47.794Z,80.40
2019-04-10T15:08:11.353Z,80.79
2019-04-10T15:10:38.762Z,80.35
2019-04-10T15:13:10.085Z,80.85
2019-04-10T15:15:36.598Z,81.01
2019-04-10T15:18:04.637Z,80.70
2019-04-10T15:20:33.397Z,81.25
2019-04-10T15:23:01.065Z,80.61
2019-04-10T15:25:28.570Z,80.45
2019-04-10T15:27:55.992Z,81.03
2019-04-10T15:30:23.726Z,80.63
2019-04-10T15:32:51.353Z,81.26
2019-04-10T15:35:18.774Z,81.25
2019-04-10T15:37:47.257Z,81.36
2019-04-10T15:40:22.167Z,81.05
2019-04-10T15:42:45.974Z,81.31
2019-04-10T15:45:14.755Z,81.71
2019-04-10T15:47:50.663Z,81.71
2019-04-10T15:50:14.168Z,81.82
2019-04-10T15:52:42.996Z,81.70
2019-04-10T15:55:11.190Z,82.62
2019-04-10T15:57:48.800Z,82.57
2019-04-10T16:00:10.640Z,82.76
2019-04-10T16:02:38.676Z,83.02
2019-04-10T16:05:07.258Z,82.96
2019-04-10T16:07:34.874Z,82.43
2019-04-10T16:10:21.268Z,82.92
2019-04-10T16:12:49.879Z,82.32
2019-04-10T16:15:17.917Z,82.51
2019-04-10T16:17:58.842Z,82.57
2019-04-10T16:20:29.435Z,81.98
2019-04-10T16:23:18.930Z,82.61
2019-04-10T16:25:52.237Z,82.16
2019-04-10T16:28:20.729Z,82.18
2019-04-10T16:30:49.280Z,82.53
2019-04-10T16:33:17.129Z,82.34
2019-04-10T16:35:46.113Z,82.58
2019-04-10T16:38:14.247Z,82.51
2019-04-10T16:40:42.073Z,83.23
2019-04-10T16:43:09.711Z,83.75
2019-04-10T16:45:38.559Z,83.04
2019-04-10T16:48:06.523Z,83.06
2019-04-10T16:50:34.290Z,83.33
2019-04-10T16:53:01.827Z,83.22
2019-04-10T16:55:29.560Z,83.67
2019-04-10T16:57:57.599Z,83.59
2019-04-10T17:00:25.305Z,83.62
2019-04-10T17:02:53.130Z,83.55
2019-04-10T17:05:21.095Z,83.54
2019-04-10T17:07:49.572Z,83.10
2019-04-10T17:10:24.099Z,83.07
2019-04-10T17:12:50.024Z,82.76
2019-04-10T17:15:18.278Z,82.85
2019-04-10T17:17:46.475Z,83.18
2019-04-10T17:20:15.970Z,83.55
2019-04-10T17:22:47.212Z,84.04
2019-04-10T17:25:13.847Z,83.99
2019-04-10T17:27:41.660Z,83.77
2019-04-10T17:30:09.649Z,83.61
2019-04-10T17:32:38.641Z,83.90
2019-04-10T17:35:09.500Z,84.27
2019-04-10T17:37:38.307Z,83.99
2019-04-10T17:40:08.723Z,84.51
2019-04-10T17:42:37.857Z,85.40
2019-04-10T17:45:07.089Z,85.46
2019-04-10T17:47:34.952Z,86.03
2019-04-10T17:50:03.738Z,86.05
2019-04-10T17:52:34.713Z,85.32
2019-04-10T17:55:01.533Z,84.53
2019-04-10T17:57:38.154Z,84.69
2019-04-10T17:59:59.857Z,84.97
2019-04-10T18:02:28.965Z,84.79
2019-04-10T18:04:58.025Z,85.13
2019-04-10T18:07:28.330Z,85.52
2019-04-10T18:09:55.986Z,86.58
2019-04-10T18:12:24.304Z,86.43
2019-04-10T18:14:52.382Z,86.31
2019-04-10T18:17:20.523Z,86.05
2019-04-10T18:19:54.584Z,86.04
2019-04-10T18:22:47.063Z,85.65
2019-04-10T18:25:15.875Z,86.27
2019-04-10T18:27:44.869Z,85.80
2019-04-10T18:30:14.112Z,86.07
2019-04-10T18:32:42.191Z,85.89
2019-04-10T18:35:10.924Z,85.81
2019-04-10T18:37:44.651Z,86.16
2019-04-10T18:40:12.812Z,85.64
2019-04-10T18:42:41.514Z,86.31
2019-04-10T18:45:11.180Z,85.74
2019-04-10T18:47:39.450Z,85.28
2019-04-10T18:50:07.901Z,85.00
2019-04-10T18:52:37.389Z,85.05
2019-04-10T18:55:05.994Z,85.40
2019-04-10T18:57:35.214Z,86.11
2019-04-10T19:00:24.403Z,85.72
2019-04-10T19:03:01.608Z,85.42
2019-04-10T19:05:34.030Z,85.64
2019-04-10T19:08:11.680Z,85.51
2019-04-10T19:10:43.267Z,85.60
2019-04-10T19:13:15.072Z,85.45
2019-04-10T19:15:46.956Z,86.15
2019-04-10T19:18:17.423Z,85.78
2019-04-10T19:20:46.927Z,86.15
2019-04-10T19:23:22.394Z,86.46
2019-04-10T19:25:51.243Z,86.74
2019-04-10T19:28:33.345Z,86.77
2019-04-10T19:31:09.250Z,87.46
2019-04-10T19:33:26.333Z,86.66
2019-04-10T19:35:56.577Z,85.90
2019-04-10T19:38:25.258Z,86.32
2019-04-10T19:40:56.339Z,86.64
2019-04-10T19:43:27.562Z,86.78
2019-04-10T19:45:56.374Z,86.09
2019-04-10T19:48:25.459Z,85.49
2019-04-10T19:50:55.227Z,85.52
2019-04-10T19:53:23.005Z,85.21
2019-04-10T19:55:51.778Z,84.52
2019-04-10T19:58:19.695Z,84.74
2019-04-10T20:00:48.990Z,84.57
2019-04-10T20:03:17.465Z,85.07
2019-04-10T20:05:46.215Z,85.66
2019-04-10T20:08:15.399Z,85.63
2019-04-10T20:10:45.474Z,85.33
2019-04-10T20:13:14.449Z,85.70
2019-04-10T20:15:45.144Z,85.59
2019-04-10T20:18:13.119Z,85.79
2019-04-10T20:20:43.700Z,85.56
2019-04-10T20:23:14.083Z,86.03
2019-04-10T20:25:42.905Z,86.05
2019-04-10T20:28:10.869Z,85.55
2019-04-10T20:30:38.744Z,86.00
2019-04-10T20:33:06.500Z,86.04
2019-04-10T20:35:34.562Z,85.94
2019-04-10T20:38:03.070Z,85.48
2019-04-10T20:40:31.899Z,85.33
2019-04-10T20:42:59.641Z,85.63
2019-04-10T20:45:27.469Z,85.36
2019-04-10T20:47:56.121Z,85.50
2019-04-10T20:50:23.970Z,85.98
2019-04-10T20:52:51.728Z,85.92
2019-04-10T20:55:19.693Z,85.62
2019-04-10T20:57:49.999Z,86.38
2019-04-10T21:00:26.816Z,86.60
2019-04-10T21:02:55.072Z,86.50
2019-04-10T21:05:24.102Z,86.33
2019-04-10T21:07:52.308Z,86.44
2019-04-10T21:10:19.804Z,86.33
2019-04-10T21:12:48.291Z,86.57
2019-04-10T21:15:15.772Z,86.80
2019-04-10T21:17:43.424Z,86.13
2019-04-10T21:20:13.291Z,86.41
2019-04-10T21:22:40.486Z,86.01
2019-04-10T21:25:08.227Z,86.38
2019-04-10T21:27:36.029Z,86.45
2019-04-10T21:30:24.214Z,87.12
2019-04-10T21:33:00.176Z,86.71
2019-04-10T21:35:32.735Z,86.80
2019-04-10T21:38:00.172Z,87.03
2019-04-10T21:40:27.521Z,86.71
2019-04-10T21:42:56.031Z,86.85
2019-04-10T21:45:24.376Z,86.47
2019-04-10T21:47:52.332Z,86.97
2019-04-10T21:50:21.466Z,86.57
2019-04-10T21:52:49.757Z,86.47
2019-04-10T21:55:17.243Z,86.87
2019-04-10T21:57:44.812Z,86.73
2019-04-10T22:00:14.323Z,87.14
2019-04-10T22:02:42.133Z,87.54
2019-04-10T22:05:10.312Z,88.22
2019-04-10T22:08:12.585Z,87.78
2019-04-10T22:10:45.191Z,88.01
2019-04-10T22:13:13.502Z,89.21
2019-04-10T22:15:44.934Z,88.87
2019-04-10T22:18:12.844Z,89.36
2019-04-10T22:20:40.244Z,89.57
2019-04-10T22:23:07.626Z,89.83
2019-04-10T22:25:35.332Z,90.13
2019-04-10T22:28:02.837Z,90.28
2019-04-10T22:30:30.181Z,90.06
2019-04-10T22:32:57.722Z,90.24
2019-04-10T22:35:25.793Z,90.05
2019-04-10T22:37:54.433Z,90.19
2019-04-10T22:40:21.949Z,89.85
2019-04-10T22:42:49.860Z,90.04
2019-04-10T22:45:27.972Z,89.89
2019-04-10T22:47:56.780Z,89.11
2019-04-10T22:50:24.477Z,89.38
2019-04-10T22:52:52.852Z,89.19
2019-04-10T22:55:21.770Z,89.39
2019-04-10T22:57:50.525Z,89.27
2019-04-10T23:00:30.317Z,90.16
2019-04-10T23:02:57.845Z,89.45
2019-04-10T23:05:25.222Z,89.25
2019-04-10T23:07:53.423Z,89.21
2019-04-10T23:10:21.203Z,89.21
2019-04-10T23:12:58.132Z,89.60
2019-04-10T23:15:18.098Z,89.76
2019-04-10T23:17:45.452Z,89.84
2019-04-10T23:20:12.799Z,90.14
2019-04-10T23:22:41.062Z,89.89
2019-04-10T23:25:09.950Z,90.04
2019-04-10T23:27:37.740Z,90.07
2019-04-10T23:30:08.646Z,90.06
2019-04-10T23:32:36.080Z,90.07
2019-04-10T23:35:03.378Z,90.14
2019-04-10T23:37:30.943Z,90.06
2019-04-10T23:39:58.718Z,90.19
2019-04-10T23:42:26.176Z,89.93
2019-04-10T23:44:55.400Z,90.02
2019-04-10T23:47:22.959Z,90.29
2019-04-10T23:49:50.277Z,90.64
2019-04-10T23:52:17.907Z,90.67
2019-04-10T23:54:45.818Z,90.12
2019-04-10T23:57:13.618Z,90.90
2019-04-10T23:59:40.941Z,90.49
